sensor_id;sensor_type;location;lat;lon;timestamp;P1;durP1;ratioP1;P2;durP2;ratioP2
72060;SDS011;59925;52.136;5.420;2022-08-05T00:01:21;4.67;;;2.13;;
72060;SDS011;59925;52.136;5.420;2022-08-05T00:03:54;3.70;;;1.52;;
72060;SDS011;59925;52.136;5.420;2022-08-05T00:06:22;5.32;;;1.52;;
72060;SDS011;59925;52.136;5.420;2022-08-05T00:08:58;6.60;;;1.63;;
72060;SDS011;59925;52.136;5.420;2022-08-05T00:11:25;4.30;;;1.90;;
72060;SDS011;59925;52.136;5.420;2022-08-05T00:14:00;3.60;;;1.50;;
72060;SDS011;59925;52.136;5.420;2022-08-05T00:16:38;6.70;;;1.95;;
72060;SDS011;59925;52.136;5.420;2022-08-05T00:19:18;7.57;;;1.65;;
72060;SDS011;59925;52.136;5.420;2022-08-05T00:21:47;3.22;;;1.33;;
72060;SDS011;59925;52.136;5.420;2022-08-05T00:24:14;5.65;;;1.42;;
72060;SDS011;59925;52.136;5.420;2022-08-05T00:26:50;5.87;;;1.80;;
72060;SDS011;59925;52.136;5.420;2022-08-05T00:29:18;6.57;;;1.30;;
72060;SDS011;59925;52.136;5.420;2022-08-05T00:31:50;6.63;;;1.90;;
72060;SDS011;59925;52.136;5.420;2022-08-05T00:34:38;5.35;;;1.48;;
72060;SDS011;59925;52.136;5.420;2022-08-05T00:37:25;5.10;;;1.40;;
72060;SDS011;59925;52.136;5.420;2022-08-05T00:40:01;4.57;;;1.60;;
72060;SDS011;59925;52.136;5.420;2022-08-05T00:42:28;4.22;;;1.60;;
72060;SDS011;59925;52.136;5.420;2022-08-05T00:44:57;4.43;;;1.60;;
72060;SDS011;59925;52.136;5.420;2022-08-05T00:47:24;7.15;;;1.50;;
72060;SDS011;59925;52.136;5.420;2022-08-05T00:49:51;7.18;;;1.67;;
72060;SDS011;59925;52.136;5.420;2022-08-05T00:52:18;5.23;;;1.70;;
72060;SDS011;59925;52.136;5.420;2022-08-05T00:54:53;5.35;;;1.65;;
72060;SDS011;59925;52.136;5.420;2022-08-05T00:57:21;6.53;;;1.98;;
72060;SDS011;59925;52.136;5.420;2022-08-05T00:59:57;9.23;;;1.70;;
72060;SDS011;59925;52.136;5.420;2022-08-05T01:02:23;8.63;;;1.40;;
72060;SDS011;59925;52.136;5.420;2022-08-05T01:04:50;6.80;;;1.60;;
72060;SDS011;59925;52.136;5.420;2022-08-05T01:07:16;4.55;;;1.75;;
72060;SDS011;59925;52.136;5.420;2022-08-05T01:09:43;6.05;;;1.50;;
72060;SDS011;59925;52.136;5.420;2022-08-05T01:12:11;5.75;;;1.33;;
72060;SDS011;59925;52.136;5.420;2022-08-05T01:14:46;7.07;;;1.52;;
72060;SDS011;59925;52.136;5.420;2022-08-05T01:17:23;3.27;;;1.33;;
72060;SDS011;59925;52.136;5.420;2022-08-05T01:23:10;3.35;;;1.23;;
72060;SDS011;59925;52.136;5.420;2022-08-05T01:25:52;5.35;;;1.67;;
72060;SDS011;59925;52.136;5.420;2022-08-05T01:28:42;4.72;;;1.27;;
72060;SDS011;59925;52.136;5.420;2022-08-05T01:31:45;4.63;;;1.67;;
72060;SDS011;59925;52.136;5.420;2022-08-05T01:34:25;4.13;;;1.52;;
72060;SDS011;59925;52.136;5.420;2022-08-05T01:37:06;6.13;;;1.63;;
72060;SDS011;59925;52.136;5.420;2022-08-05T01:39:34;4.78;;;1.02;;
72060;SDS011;59925;52.136;5.420;2022-08-05T01:42:12;5.78;;;1.25;;
72060;SDS011;59925;52.136;5.420;2022-08-05T01:44:41;3.80;;;1.13;;
72060;SDS011;59925;52.136;5.420;2022-08-05T01:47:19;4.85;;;1.02;;
72060;SDS011;59925;52.136;5.420;2022-08-05T01:49:48;3.42;;;1.02;;
72060;SDS011;59925;52.136;5.420;2022-08-05T01:52:27;5.35;;;1.25;;
72060;SDS011;59925;52.136;5.420;2022-08-05T01:54:58;4.18;;;1.35;;
72060;SDS011;59925;52.136;5.420;2022-08-05T01:57:31;4.60;;;1.17;;
72060;SDS011;59925;52.136;5.420;2022-08-05T02:00:20;4.25;;;1.15;;
72060;SDS011;59925;52.136;5.420;2022-08-05T02:03:00;4.60;;;1.23;;
72060;SDS011;59925;52.136;5.420;2022-08-05T02:05:53;5.82;;;1.38;;
72060;SDS011;59925;52.136;5.420;2022-08-05T02:08:26;4.93;;;1.23;;
72060;SDS011;59925;52.136;5.420;2022-08-05T02:11:06;4.07;;;1.30;;
72060;SDS011;59925;52.136;5.420;2022-08-05T02:13:41;3.63;;;1.42;;
72060;SDS011;59925;52.136;5.420;2022-08-05T02:16:26;5.28;;;1.27;;
72060;SDS011;59925;52.136;5.420;2022-08-05T02:21:43;4.80;;;1.38;;
72060;SDS011;59925;52.136;5.420;2022-08-05T02:24:17;5.83;;;1.50;;
72060;SDS011;59925;52.136;5.420;2022-08-05T02:26:50;5.20;;;1.23;;
72060;SDS011;59925;52.136;5.420;2022-08-05T02:29:35;3.72;;;1.25;;
72060;SDS011;59925;52.136;5.420;2022-08-05T02:32:24;3.75;;;1.13;;
72060;SDS011;59925;52.136;5.420;2022-08-05T02:34:57;5.68;;;1.63;;
72060;SDS011;59925;52.136;5.420;2022-08-05T02:37:39;4.83;;;1.20;;
72060;SDS011;59925;52.136;5.420;2022-08-05T02:40:13;4.97;;;1.75;;
72060;SDS011;59925;52.136;5.420;2022-08-05T02:42:42;4.63;;;1.30;;
72060;SDS011;59925;52.136;5.420;2022-08-05T02:45:19;5.82;;;1.42;;
72060;SDS011;59925;52.136;5.420;2022-08-05T02:47:50;4.50;;;1.70;;
72060;SDS011;59925;52.136;5.420;2022-08-05T02:50:38;6.43;;;1.53;;
72060;SDS011;59925;52.136;5.420;2022-08-05T02:53:13;3.38;;;1.40;;
72060;SDS011;59925;52.136;5.420;2022-08-05T02:55:44;5.18;;;1.63;;
72060;SDS011;59925;52.136;5.420;2022-08-05T02:58:25;4.60;;;1.20;;
72060;SDS011;59925;52.136;5.420;2022-08-05T03:00:55;4.32;;;1.15;;
72060;SDS011;59925;52.136;5.420;2022-08-05T03:03:24;4.47;;;1.33;;
72060;SDS011;59925;52.136;5.420;2022-08-05T03:05:59;4.57;;;1.63;;
72060;SDS011;59925;52.136;5.420;2022-08-05T03:08:46;6.88;;;1.70;;
72060;SDS011;59925;52.136;5.420;2022-08-05T03:11:18;4.45;;;1.30;;
72060;SDS011;59925;52.136;5.420;2022-08-05T03:14:09;4.30;;;1.50;;
72060;SDS011;59925;52.136;5.420;2022-08-05T03:16:38;6.27;;;1.50;;
72060;SDS011;59925;52.136;5.420;2022-08-05T03:19:05;6.65;;;1.52;;
72060;SDS011;59925;52.136;5.420;2022-08-05T03:21:51;4.93;;;1.58;;
72060;SDS011;59925;52.136;5.420;2022-08-05T03:24:18;5.70;;;1.77;;
72060;SDS011;59925;52.136;5.420;2022-08-05T03:26:55;4.40;;;1.30;;
72060;SDS011;59925;52.136;5.420;2022-08-05T03:29:22;4.10;;;1.57;;
72060;SDS011;59925;52.136;5.420;2022-08-05T03:31:48;5.72;;;1.80;;
72060;SDS011;59925;52.136;5.420;2022-08-05T03:34:22;3.88;;;1.70;;
72060;SDS011;59925;52.136;5.420;2022-08-05T03:36:52;3.35;;;1.75;;
72060;SDS011;59925;52.136;5.420;2022-08-05T03:39:19;7.75;;;1.67;;
72060;SDS011;59925;52.136;5.420;2022-08-05T03:41:52;4.70;;;1.60;;
72060;SDS011;59925;52.136;5.420;2022-08-05T03:44:21;4.65;;;1.58;;
72060;SDS011;59925;52.136;5.420;2022-08-05T03:46:48;5.65;;;1.50;;
72060;SDS011;59925;52.136;5.420;2022-08-05T03:49:14;6.47;;;1.60;;
72060;SDS011;59925;52.136;5.420;2022-08-05T03:54:49;6.00;;;1.40;;
72060;SDS011;59925;52.136;5.420;2022-08-05T03:57:41;3.25;;;1.48;;
72060;SDS011;59925;52.136;5.420;2022-08-05T04:00:11;4.88;;;1.73;;
72060;SDS011;59925;52.136;5.420;2022-08-05T04:02:45;4.00;;;1.60;;
72060;SDS011;59925;52.136;5.420;2022-08-05T04:05:24;7.15;;;1.90;;
72060;SDS011;59925;52.136;5.420;2022-08-05T04:08:00;5.33;;;1.77;;
72060;SDS011;59925;52.136;5.420;2022-08-05T04:10:50;4.60;;;1.63;;
72060;SDS011;59925;52.136;5.420;2022-08-05T04:13:17;5.05;;;1.67;;
72060;SDS011;59925;52.136;5.420;2022-08-05T04:15:46;3.58;;;1.30;;
72060;SDS011;59925;52.136;5.420;2022-08-05T04:18:28;5.75;;;1.80;;
72060;SDS011;59925;52.136;5.420;2022-08-05T04:20:55;6.77;;;1.80;;
72060;SDS011;59925;52.136;5.420;2022-08-05T04:23:23;3.33;;;1.40;;
72060;SDS011;59925;52.136;5.420;2022-08-05T04:26:14;3.30;;;1.70;;
72060;SDS011;59925;52.136;5.420;2022-08-05T04:28:42;6.53;;;1.95;;
72060;SDS011;59925;52.136;5.420;2022-08-05T04:31:16;4.43;;;1.40;;
72060;SDS011;59925;52.136;5.420;2022-08-05T04:33:43;5.47;;;2.27;;
72060;SDS011;59925;52.136;5.420;2022-08-05T04:36:30;3.72;;;1.60;;
72060;SDS011;59925;52.136;5.420;2022-08-05T04:39:15;2.15;;;1.38;;
72060;SDS011;59925;52.136;5.420;2022-08-05T04:41:43;5.88;;;1.80;;
72060;SDS011;59925;52.136;5.420;2022-08-05T04:44:13;7.85;;;1.75;;
72060;SDS011;59925;52.136;5.420;2022-08-05T04:46:41;3.40;;;1.40;;
72060;SDS011;59925;52.136;5.420;2022-08-05T04:49:12;3.72;;;1.40;;
72060;SDS011;59925;52.136;5.420;2022-08-05T04:51:40;4.60;;;1.70;;
72060;SDS011;59925;52.136;5.420;2022-08-05T04:54:08;5.88;;;1.70;;
72060;SDS011;59925;52.136;5.420;2022-08-05T04:56:37;7.47;;;2.05;;
72060;SDS011;59925;52.136;5.420;2022-08-05T04:59:03;3.13;;;1.90;;
72060;SDS011;59925;52.136;5.420;2022-08-05T05:01:49;4.22;;;1.70;;
72060;SDS011;59925;52.136;5.420;2022-08-05T05:04:36;5.95;;;1.80;;
72060;SDS011;59925;52.136;5.420;2022-08-05T05:07:09;7.07;;;1.70;;
72060;SDS011;59925;52.136;5.420;2022-08-05T05:09:41;6.32;;;2.30;;
72060;SDS011;59925;52.136;5.420;2022-08-05T05:12:09;7.70;;;1.83;;
72060;SDS011;59925;52.136;5.420;2022-08-05T05:14:36;4.25;;;1.70;;
72060;SDS011;59925;52.136;5.420;2022-08-05T05:17:07;4.22;;;1.60;;
72060;SDS011;59925;52.136;5.420;2022-08-05T05:19:34;7.68;;;2.47;;
72060;SDS011;59925;52.136;5.420;2022-08-05T05:22:09;6.10;;;1.73;;
72060;SDS011;59925;52.136;5.420;2022-08-05T05:24:51;3.43;;;1.30;;
72060;SDS011;59925;52.136;5.420;2022-08-05T05:27:24;5.05;;;1.40;;
72060;SDS011;59925;52.136;5.420;2022-08-05T05:30:14;6.75;;;1.60;;
72060;SDS011;59925;52.136;5.420;2022-08-05T05:32:58;3.75;;;1.08;;
72060;SDS011;59925;52.136;5.420;2022-08-05T05:35:39;5.30;;;1.50;;
72060;SDS011;59925;52.136;5.420;2022-08-05T05:38:07;3.07;;;1.20;;
72060;SDS011;59925;52.136;5.420;2022-08-05T05:40:39;7.13;;;1.85;;
72060;SDS011;59925;52.136;5.420;2022-08-05T05:43:17;3.92;;;1.25;;
72060;SDS011;59925;52.136;5.420;2022-08-05T05:46:04;4.35;;;1.38;;
72060;SDS011;59925;52.136;5.420;2022-08-05T05:48:39;5.63;;;1.50;;
72060;SDS011;59925;52.136;5.420;2022-08-05T05:51:09;7.17;;;1.57;;
72060;SDS011;59925;52.136;5.420;2022-08-05T05:53:41;2.88;;;1.00;;
72060;SDS011;59925;52.136;5.420;2022-08-05T05:56:27;4.78;;;1.58;;
72060;SDS011;59925;52.136;5.420;2022-08-05T05:59:03;4.53;;;1.17;;
72060;SDS011;59925;52.136;5.420;2022-08-05T06:01:33;2.67;;;1.08;;
72060;SDS011;59925;52.136;5.420;2022-08-05T06:04:07;4.27;;;1.33;;
72060;SDS011;59925;52.136;5.420;2022-08-05T06:06:38;3.33;;;1.30;;
72060;SDS011;59925;52.136;5.420;2022-08-05T06:09:07;2.17;;;1.00;;
72060;SDS011;59925;52.136;5.420;2022-08-05T06:11:42;2.83;;;1.00;;
72060;SDS011;59925;52.136;5.420;2022-08-05T06:14:27;2.67;;;1.17;;
72060;SDS011;59925;52.136;5.420;2022-08-05T06:16:54;4.67;;;1.10;;
72060;SDS011;59925;52.136;5.420;2022-08-05T06:19:23;3.63;;;1.00;;
72060;SDS011;59925;52.136;5.420;2022-08-05T06:21:59;1.48;;;0.90;;
72060;SDS011;59925;52.136;5.420;2022-08-05T06:24:25;1.65;;;1.20;;
72060;SDS011;59925;52.136;5.420;2022-08-05T06:26:52;2.85;;;0.90;;
72060;SDS011;59925;52.136;5.420;2022-08-05T06:29:20;2.87;;;1.13;;
72060;SDS011;59925;52.136;5.420;2022-08-05T06:32:07;4.13;;;1.10;;
72060;SDS011;59925;52.136;5.420;2022-08-05T06:34:51;2.72;;;0.90;;
72060;SDS011;59925;52.136;5.420;2022-08-05T06:37:26;2.65;;;0.93;;
72060;SDS011;59925;52.136;5.420;2022-08-05T06:40:13;2.03;;;1.00;;
72060;SDS011;59925;52.136;5.420;2022-08-05T06:42:46;3.53;;;1.13;;
72060;SDS011;59925;52.136;5.420;2022-08-05T06:45:17;2.35;;;1.30;;
72060;SDS011;59925;52.136;5.420;2022-08-05T06:48:05;3.13;;;1.10;;
72060;SDS011;59925;52.136;5.420;2022-08-05T06:50:51;3.88;;;0.90;;
72060;SDS011;59925;52.136;5.420;2022-08-05T06:53:18;2.78;;;0.85;;
72060;SDS011;59925;52.136;5.420;2022-08-05T06:55:53;1.37;;;0.90;;
72060;SDS011;59925;52.136;5.420;2022-08-05T06:58:21;2.75;;;0.95;;
72060;SDS011;59925;52.136;5.420;2022-08-05T07:01:02;1.27;;;0.73;;
72060;SDS011;59925;52.136;5.420;2022-08-05T07:03:30;1.55;;;0.60;;
72060;SDS011;59925;52.136;5.420;2022-08-05T07:05:58;1.90;;;0.80;;
72060;SDS011;59925;52.136;5.420;2022-08-05T07:08:40;2.40;;;0.70;;
72060;SDS011;59925;52.136;5.420;2022-08-05T07:11:16;2.35;;;0.90;;
72060;SDS011;59925;52.136;5.420;2022-08-05T07:13:50;3.22;;;0.80;;
72060;SDS011;59925;52.136;5.420;2022-08-05T07:16:54;3.67;;;1.13;;
72060;SDS011;59925;52.136;5.420;2022-08-05T07:19:45;3.63;;;0.80;;
72060;SDS011;59925;52.136;5.420;2022-08-05T07:22:32;3.33;;;0.90;;
72060;SDS011;59925;52.136;5.420;2022-08-05T07:24:59;2.58;;;0.80;;
72060;SDS011;59925;52.136;5.420;2022-08-05T07:27:47;2.47;;;0.85;;
72060;SDS011;59925;52.136;5.420;2022-08-05T07:30:28;3.53;;;0.70;;
72060;SDS011;59925;52.136;5.420;2022-08-05T07:33:00;2.03;;;0.73;;
72060;SDS011;59925;52.136;5.420;2022-08-05T07:35:34;4.40;;;0.80;;
72060;SDS011;59925;52.136;5.420;2022-08-05T07:38:20;2.35;;;1.02;;
72060;SDS011;59925;52.136;5.420;2022-08-05T07:41:04;1.05;;;0.60;;
72060;SDS011;59925;52.136;5.420;2022-08-05T07:43:51;2.75;;;0.50;;
72060;SDS011;59925;52.136;5.420;2022-08-05T07:46:22;2.80;;;0.65;;
72060;SDS011;59925;52.136;5.420;2022-08-05T07:48:51;1.20;;;0.40;;
72060;SDS011;59925;52.136;5.420;2022-08-05T07:51:31;1.25;;;0.80;;
72060;SDS011;59925;52.136;5.420;2022-08-05T07:54:05;2.53;;;0.95;;
72060;SDS011;59925;52.136;5.420;2022-08-05T07:56:34;1.02;;;0.43;;
72060;SDS011;59925;52.136;5.420;2022-08-05T07:59:21;1.63;;;0.77;;
72060;SDS011;59925;52.136;5.420;2022-08-05T08:02:03;2.00;;;0.60;;
72060;SDS011;59925;52.136;5.420;2022-08-05T08:04:40;2.42;;;0.50;;
72060;SDS011;59925;52.136;5.420;2022-08-05T08:07:06;2.60;;;0.45;;
72060;SDS011;59925;52.136;5.420;2022-08-05T08:09:33;1.30;;;0.40;;
72060;SDS011;59925;52.136;5.420;2022-08-05T08:12:02;2.75;;;0.50;;
72060;SDS011;59925;52.136;5.420;2022-08-05T08:14:42;1.03;;;0.40;;
72060;SDS011;59925;52.136;5.420;2022-08-05T08:17:12;1.95;;;0.40;;
72060;SDS011;59925;52.136;5.420;2022-08-05T08:19:41;2.65;;;0.40;;
72060;SDS011;59925;52.136;5.420;2022-08-05T08:22:29;1.05;;;0.40;;
72060;SDS011;59925;52.136;5.420;2022-08-05T08:24:57;1.35;;;0.45;;
72060;SDS011;59925;52.136;5.420;2022-08-05T08:27:29;1.30;;;0.70;;
72060;SDS011;59925;52.136;5.420;2022-08-05T08:30:07;3.38;;;0.50;;
72060;SDS011;59925;52.136;5.420;2022-08-05T08:32:56;0.98;;;0.45;;
72060;SDS011;59925;52.136;5.420;2022-08-05T08:35:27;1.02;;;0.40;;
72060;SDS011;59925;52.136;5.420;2022-08-05T08:38:06;1.90;;;0.50;;
72060;SDS011;59925;52.136;5.420;2022-08-05T08:40:33;3.07;;;0.60;;
72060;SDS011;59925;52.136;5.420;2022-08-05T08:43:01;2.58;;;0.45;;
72060;SDS011;59925;52.136;5.420;2022-08-05T08:45:48;0.65;;;0.40;;
72060;SDS011;59925;52.136;5.420;2022-08-05T08:48:16;1.70;;;0.52;;
72060;SDS011;59925;52.136;5.420;2022-08-05T08:51:05;2.15;;;0.52;;
72060;SDS011;59925;52.136;5.420;2022-08-05T08:53:51;1.40;;;0.60;;
72060;SDS011;59925;52.136;5.420;2022-08-05T08:56:19;0.80;;;0.50;;
72060;SDS011;59925;52.136;5.420;2022-08-05T08:58:47;1.40;;;0.45;;
72060;SDS011;59925;52.136;5.420;2022-08-05T09:01:16;0.80;;;0.40;;
72060;SDS011;59925;52.136;5.420;2022-08-05T09:03:46;1.30;;;0.40;;
72060;SDS011;59925;52.136;5.420;2022-08-05T09:06:22;1.07;;;0.40;;
72060;SDS011;59925;52.136;5.420;2022-08-05T09:08:55;0.75;;;0.52;;
72060;SDS011;59925;52.136;5.420;2022-08-05T09:11:24;1.80;;;0.50;;
72060;SDS011;59925;52.136;5.420;2022-08-05T09:14:11;3.05;;;0.50;;
72060;SDS011;59925;52.136;5.420;2022-08-05T09:16:58;1.85;;;0.57;;
72060;SDS011;59925;52.136;5.420;2022-08-05T09:19:25;2.43;;;0.47;;
72060;SDS011;59925;52.136;5.420;2022-08-05T09:21:53;2.30;;;0.50;;
72060;SDS011;59925;52.136;5.420;2022-08-05T09:24:39;1.95;;;0.70;;
72060;SDS011;59925;52.136;5.420;2022-08-05T09:27:07;2.97;;;0.50;;
72060;SDS011;59925;52.136;5.420;2022-08-05T09:29:41;1.67;;;0.50;;
72060;SDS011;59925;52.136;5.420;2022-08-05T09:32:13;1.67;;;0.40;;
72060;SDS011;59925;52.136;5.420;2022-08-05T09:35:01;1.83;;;0.35;;
72060;SDS011;59925;52.136;5.420;2022-08-05T09:37:51;2.65;;;0.52;;
72060;SDS011;59925;52.136;5.420;2022-08-05T09:40:39;2.53;;;0.40;;
72060;SDS011;59925;52.136;5.420;2022-08-05T09:43:33;1.55;;;0.40;;
72060;SDS011;59925;52.136;5.420;2022-08-05T09:46:07;1.47;;;0.40;;
72060;SDS011;59925;52.136;5.420;2022-08-05T09:48:53;3.30;;;0.55;;
72060;SDS011;59925;52.136;5.420;2022-08-05T09:51:43;2.70;;;0.40;;
72060;SDS011;59925;52.136;5.420;2022-08-05T09:54:15;2.30;;;0.40;;
72060;SDS011;59925;52.136;5.420;2022-08-05T09:56:54;2.55;;;0.75;;
72060;SDS011;59925;52.136;5.420;2022-08-05T09:59:22;1.20;;;0.40;;
72060;SDS011;59925;52.136;5.420;2022-08-05T10:01:52;1.05;;;0.50;;
72060;SDS011;59925;52.136;5.420;2022-08-05T10:04:32;0.93;;;0.50;;
72060;SDS011;59925;52.136;5.420;2022-08-05T10:07:03;3.13;;;0.60;;
72060;SDS011;59925;52.136;5.420;2022-08-05T10:09:53;2.13;;;0.47;;
72060;SDS011;59925;52.136;5.420;2022-08-05T10:12:41;1.10;;;0.47;;
72060;SDS011;59925;52.136;5.420;2022-08-05T10:15:16;2.53;;;0.40;;
72060;SDS011;59925;52.136;5.420;2022-08-05T10:20:46;1.17;;;0.60;;
72060;SDS011;59925;52.136;5.420;2022-08-05T10:23:22;2.67;;;0.60;;
72060;SDS011;59925;52.136;5.420;2022-08-05T10:26:13;1.50;;;0.50;;
72060;SDS011;59925;52.136;5.420;2022-08-05T10:28:44;1.52;;;0.38;;
72060;SDS011;59925;52.136;5.420;2022-08-05T10:31:12;1.85;;;0.40;;
72060;SDS011;59925;52.136;5.420;2022-08-05T10:34:00;1.25;;;0.50;;
72060;SDS011;59925;52.136;5.420;2022-08-05T10:36:27;2.58;;;0.50;;
72060;SDS011;59925;52.136;5.420;2022-08-05T10:38:57;1.40;;;0.60;;
72060;SDS011;59925;52.136;5.420;2022-08-05T10:41:52;0.68;;;0.30;;
72060;SDS011;59925;52.136;5.420;2022-08-05T10:44:26;0.90;;;0.50;;
72060;SDS011;59925;52.136;5.420;2022-08-05T10:46:54;1.48;;;0.60;;
72060;SDS011;59925;52.136;5.420;2022-08-05T10:49:22;1.70;;;0.55;;
72060;SDS011;59925;52.136;5.420;2022-08-05T10:51:58;2.07;;;0.53;;
72060;SDS011;59925;52.136;5.420;2022-08-05T10:54:44;1.42;;;0.55;;
72060;SDS011;59925;52.136;5.420;2022-08-05T10:57:27;1.95;;;0.40;;
72060;SDS011;59925;52.136;5.420;2022-08-05T11:00:17;1.20;;;0.40;;
72060;SDS011;59925;52.136;5.420;2022-08-05T11:06:00;0.77;;;0.50;;
72060;SDS011;59925;52.136;5.420;2022-08-05T11:08:56;0.85;;;0.47;;
72060;SDS011;59925;52.136;5.420;2022-08-05T11:11:44;1.23;;;0.40;;
72060;SDS011;59925;52.136;5.420;2022-08-05T11:14:22;0.60;;;0.40;;
72060;SDS011;59925;52.136;5.420;2022-08-05T11:17:31;2.55;;;0.50;;
72060;SDS011;59925;52.136;5.420;2022-08-05T11:26:08;1.30;;;0.40;;
72060;SDS011;59925;52.136;5.420;2022-08-05T11:28:59;1.40;;;0.40;;
72060;SDS011;59925;52.136;5.420;2022-08-05T11:31:37;3.92;;;0.50;;
72060;SDS011;59925;52.136;5.420;2022-08-05T11:34:33;1.87;;;0.40;;
72060;SDS011;59925;52.136;5.420;2022-08-05T11:37:02;2.50;;;0.60;;
72060;SDS011;59925;52.136;5.420;2022-08-05T11:39:49;1.70;;;0.40;;
72060;SDS011;59925;52.136;5.420;2022-08-05T11:42:26;1.70;;;0.40;;
72060;SDS011;59925;52.136;5.420;2022-08-05T11:44:54;1.90;;;0.40;;
72060;SDS011;59925;52.136;5.420;2022-08-05T11:47:28;3.80;;;0.53;;
72060;SDS011;59925;52.136;5.420;2022-08-05T11:50:15;2.45;;;0.50;;
72060;SDS011;59925;52.136;5.420;2022-08-05T11:52:41;1.35;;;0.50;;
72060;SDS011;59925;52.136;5.420;2022-08-05T11:55:11;1.95;;;0.45;;
72060;SDS011;59925;52.136;5.420;2022-08-05T11:57:38;0.75;;;0.40;;
72060;SDS011;59925;52.136;5.420;2022-08-05T12:00:30;1.83;;;0.70;;
72060;SDS011;59925;52.136;5.420;2022-08-05T12:02:57;1.40;;;0.47;;
72060;SDS011;59925;52.136;5.420;2022-08-05T12:05:39;1.30;;;0.40;;
72060;SDS011;59925;52.136;5.420;2022-08-05T12:08:08;1.73;;;0.40;;
72060;SDS011;59925;52.136;5.420;2022-08-05T12:10:43;1.60;;;0.50;;
72060;SDS011;59925;52.136;5.420;2022-08-05T12:13:14;1.00;;;0.40;;
72060;SDS011;59925;52.136;5.420;2022-08-05T12:16:04;0.80;;;0.30;;
72060;SDS011;59925;52.136;5.420;2022-08-05T12:18:40;2.67;;;0.60;;
72060;SDS011;59925;52.136;5.420;2022-08-05T12:21:22;0.80;;;0.43;;
72060;SDS011;59925;52.136;5.420;2022-08-05T12:23:59;1.35;;;0.50;;
72060;SDS011;59925;52.136;5.420;2022-08-05T12:26:33;0.80;;;0.40;;
72060;SDS011;59925;52.136;5.420;2022-08-05T12:29:02;2.08;;;0.40;;
72060;SDS011;59925;52.136;5.420;2022-08-05T12:31:37;1.85;;;0.40;;
72060;SDS011;59925;52.136;5.420;2022-08-05T12:34:11;4.25;;;0.60;;
72060;SDS011;59925;52.136;5.420;2022-08-05T12:36:46;3.92;;;0.60;;
72060;SDS011;59925;52.136;5.420;2022-08-05T12:39:14;2.27;;;0.50;;
72060;SDS011;59925;52.136;5.420;2022-08-05T12:41:42;1.45;;;0.63;;
72060;SDS011;59925;52.136;5.420;2022-08-05T12:44:10;1.23;;;0.50;;
72060;SDS011;59925;52.136;5.420;2022-08-05T12:46:50;2.38;;;0.50;;
72060;SDS011;59925;52.136;5.420;2022-08-05T12:49:19;1.25;;;0.45;;
72060;SDS011;59925;52.136;5.420;2022-08-05T12:51:57;1.57;;;0.50;;
72060;SDS011;59925;52.136;5.420;2022-08-05T12:54:45;1.05;;;0.50;;
72060;SDS011;59925;52.136;5.420;2022-08-05T12:57:17;1.88;;;0.50;;
72060;SDS011;59925;52.136;5.420;2022-08-05T12:59:52;0.95;;;0.50;;
72060;SDS011;59925;52.136;5.420;2022-08-05T13:02:40;2.25;;;0.63;;
72060;SDS011;59925;52.136;5.420;2022-08-05T13:05:07;3.27;;;0.50;;
72060;SDS011;59925;52.136;5.420;2022-08-05T13:07:39;1.60;;;0.60;;
72060;SDS011;59925;52.136;5.420;2022-08-05T13:10:25;2.58;;;0.60;;
72060;SDS011;59925;52.136;5.420;2022-08-05T13:12:54;3.80;;;0.40;;
72060;SDS011;59925;52.136;5.420;2022-08-05T13:15:29;2.08;;;0.40;;
72060;SDS011;59925;52.136;5.420;2022-08-05T13:18:16;1.93;;;0.53;;
72060;SDS011;59925;52.136;5.420;2022-08-05T13:20:46;2.65;;;0.50;;
72060;SDS011;59925;52.136;5.420;2022-08-05T13:23:15;3.20;;;0.70;;
72060;SDS011;59925;52.136;5.420;2022-08-05T13:25:47;2.05;;;0.60;;
72060;SDS011;59925;52.136;5.420;2022-08-05T13:28:24;4.72;;;0.75;;
72060;SDS011;59925;52.136;5.420;2022-08-05T13:30:50;4.17;;;0.60;;
72060;SDS011;59925;52.136;5.420;2022-08-05T13:33:19;1.88;;;0.60;;
72060;SDS011;59925;52.136;5.420;2022-08-05T13:36:08;3.55;;;0.60;;
72060;SDS011;59925;52.136;5.420;2022-08-05T13:38:35;1.73;;;0.70;;
72060;SDS011;59925;52.136;5.420;2022-08-05T13:41:08;1.27;;;0.75;;
72060;SDS011;59925;52.136;5.420;2022-08-05T13:43:35;2.00;;;0.50;;
72060;SDS011;59925;52.136;5.420;2022-08-05T13:46:11;1.40;;;0.60;;
72060;SDS011;59925;52.136;5.420;2022-08-05T13:48:38;1.13;;;0.50;;
72060;SDS011;59925;52.136;5.420;2022-08-05T13:51:25;1.65;;;0.63;;
72060;SDS011;59925;52.136;5.420;2022-08-05T13:54:06;2.17;;;0.70;;
72060;SDS011;59925;52.136;5.420;2022-08-05T13:56:38;1.03;;;0.50;;
72060;SDS011;59925;52.136;5.420;2022-08-05T13:59:16;1.70;;;0.50;;
72060;SDS011;59925;52.136;5.420;2022-08-05T14:01:46;1.38;;;0.73;;
72060;SDS011;59925;52.136;5.420;2022-08-05T14:04:24;2.13;;;0.50;;
72060;SDS011;59925;52.136;5.420;2022-08-05T14:07:16;2.03;;;0.55;;
72060;SDS011;59925;52.136;5.420;2022-08-05T14:12:33;2.58;;;0.60;;
72060;SDS011;59925;52.136;5.420;2022-08-05T14:15:00;2.45;;;0.50;;
72060;SDS011;59925;52.136;5.420;2022-08-05T14:17:46;1.23;;;0.50;;
72060;SDS011;59925;52.136;5.420;2022-08-05T14:20:13;2.60;;;0.77;;
72060;SDS011;59925;52.136;5.420;2022-08-05T14:22:43;1.13;;;0.70;;
72060;SDS011;59925;52.136;5.420;2022-08-05T14:25:15;1.48;;;0.50;;
72060;SDS011;59925;52.136;5.420;2022-08-05T14:27:47;1.70;;;1.00;;
72060;SDS011;59925;52.136;5.420;2022-08-05T14:30:14;1.63;;;0.50;;
72060;SDS011;59925;52.136;5.420;2022-08-05T14:32:46;1.40;;;0.47;;
72060;SDS011;59925;52.136;5.420;2022-08-05T14:35:12;1.63;;;0.40;;
72060;SDS011;59925;52.136;5.420;2022-08-05T14:37:39;2.75;;;0.60;;
72060;SDS011;59925;52.136;5.420;2022-08-05T14:40:14;2.45;;;0.65;;
72060;SDS011;59925;52.136;5.420;2022-08-05T14:42:42;2.40;;;0.52;;
72060;SDS011;59925;52.136;5.420;2022-08-05T14:45:11;3.15;;;0.52;;
72060;SDS011;59925;52.136;5.420;2022-08-05T14:47:43;3.30;;;0.50;;
72060;SDS011;59925;52.136;5.420;2022-08-05T14:50:29;3.38;;;0.50;;
72060;SDS011;59925;52.136;5.420;2022-08-05T14:52:58;1.33;;;0.50;;
72060;SDS011;59925;52.136;5.420;2022-08-05T14:55:27;1.20;;;0.43;;
72060;SDS011;59925;52.136;5.420;2022-08-05T14:58:05;3.13;;;0.50;;
72060;SDS011;59925;52.136;5.420;2022-08-05T15:00:37;1.40;;;0.40;;
72060;SDS011;59925;52.136;5.420;2022-08-05T15:03:25;1.70;;;0.40;;
72060;SDS011;59925;52.136;5.420;2022-08-05T15:06:04;3.10;;;0.40;;
72060;SDS011;59925;52.136;5.420;2022-08-05T15:08:39;2.08;;;0.40;;
72060;SDS011;59925;52.136;5.420;2022-08-05T15:11:25;1.20;;;0.40;;
72060;SDS011;59925;52.136;5.420;2022-08-05T15:14:11;2.67;;;0.50;;
72060;SDS011;59925;52.136;5.420;2022-08-05T15:16:57;2.67;;;0.60;;
72060;SDS011;59925;52.136;5.420;2022-08-05T15:19:24;1.88;;;0.70;;
72060;SDS011;59925;52.136;5.420;2022-08-05T15:21:51;2.97;;;0.50;;
72060;SDS011;59925;52.136;5.420;2022-08-05T15:24:17;3.83;;;0.60;;
72060;SDS011;59925;52.136;5.420;2022-08-05T15:26:45;5.30;;;0.50;;
72060;SDS011;59925;52.136;5.420;2022-08-05T15:29:13;1.80;;;0.50;;
72060;SDS011;59925;52.136;5.420;2022-08-05T15:31:40;3.97;;;0.40;;
72060;SDS011;59925;52.136;5.420;2022-08-05T15:34:06;1.95;;;0.57;;
72060;SDS011;59925;52.136;5.420;2022-08-05T15:36:53;2.30;;;0.68;;
72060;SDS011;59925;52.136;5.420;2022-08-05T15:39:19;2.23;;;1.53;;
72060;SDS011;59925;52.136;5.420;2022-08-05T15:42:05;3.20;;;0.60;;
72060;SDS011;59925;52.136;5.420;2022-08-05T15:44:52;3.55;;;0.50;;
72060;SDS011;59925;52.136;5.420;2022-08-05T15:47:20;1.48;;;0.40;;
72060;SDS011;59925;52.136;5.420;2022-08-05T15:49:49;2.20;;;0.43;;
72060;SDS011;59925;52.136;5.420;2022-08-05T15:52:24;2.30;;;0.40;;
72060;SDS011;59925;52.136;5.420;2022-08-05T15:55:11;1.60;;;0.50;;
72060;SDS011;59925;52.136;5.420;2022-08-05T15:57:41;2.63;;;0.60;;
72060;SDS011;59925;52.136;5.420;2022-08-05T16:00:10;3.40;;;0.50;;
72060;SDS011;59925;52.136;5.420;2022-08-05T16:02:37;3.13;;;0.50;;